sensor_id;sensor_type;location;lat;lon;timestamp;P1;durP1;ratioP1;P2;durP2;ratioP2
11283;SDS011;5698;47.332;11.180;2023-09-19T00:02:05;1.30;;;1.20;;
11283;SDS011;5698;47.332;11.180;2023-09-19T00:04:33;1.90;;;1.40;;
11283;SDS011;5698;47.332;11.180;2023-09-19T00:07:04;1.57;;;1.40;;
11283;SDS011;5698;47.332;11.180;2023-09-19T00:09:31;1.67;;;1.10;;
11283;SDS011;5698;47.332;11.180;2023-09-19T00:12:02;1.20;;;1.10;;
11283;SDS011;5698;47.332;11.180;2023-09-19T00:14:30;1.73;;;1.57;;
11283;SDS011;5698;47.332;11.180;2023-09-19T00:16:59;2.17;;;1.43;;
11283;SDS011;5698;47.332;11.180;2023-09-19T00:19:32;1.90;;;1.80;;
11283;SDS011;5698;47.332;11.180;2023-09-19T00:21:59;1.70;;;1.50;;
11283;SDS011;5698;47.332;11.180;2023-09-19T00:24:26;2.47;;;2.03;;
11283;SDS011;5698;47.332;11.180;2023-09-19T00:26:53;1.87;;;1.30;;
11283;SDS011;5698;47.332;11.180;2023-09-19T00:29:21;1.27;;;1.17;;
11283;SDS011;5698;47.332;11.180;2023-09-19T00:31:48;1.67;;;1.40;;
11283;SDS011;5698;47.332;11.180;2023-09-19T00:34:16;2.47;;;2.07;;
11283;SDS011;5698;47.332;11.180;2023-09-19T00:36:44;2.00;;;1.80;;
11283;SDS011;5698;47.332;11.180;2023-09-19T00:39:11;2.13;;;1.90;;
11283;SDS011;5698;47.332;11.180;2023-09-19T00:41:38;2.57;;;2.13;;
11283;SDS011;5698;47.332;11.180;2023-09-19T00:44:06;2.13;;;1.80;;
11283;SDS011;5698;47.332;11.180;2023-09-19T00:46:34;2.90;;;2.60;;
11283;SDS011;5698;47.332;11.180;2023-09-19T00:49:02;3.07;;;2.10;;
11283;SDS011;5698;47.332;11.180;2023-09-19T00:51:29;2.77;;;1.80;;
11283;SDS011;5698;47.332;11.180;2023-09-19T00:53:57;1.70;;;1.60;;
11283;SDS011;5698;47.332;11.180;2023-09-19T00:56:25;2.27;;;1.80;;
11283;SDS011;5698;47.332;11.180;2023-09-19T00:58:52;1.90;;;1.80;;
11283;SDS011;5698;47.332;11.180;2023-09-19T01:01:19;2.70;;;2.10;;
11283;SDS011;5698;47.332;11.180;2023-09-19T01:03:46;2.87;;;2.10;;
11283;SDS011;5698;47.332;11.180;2023-09-19T01:06:13;2.23;;;2.03;;
11283;SDS011;5698;47.332;11.180;2023-09-19T01:08:41;1.90;;;1.80;;
11283;SDS011;5698;47.332;11.180;2023-09-19T01:11:11;1.90;;;1.80;;
11283;SDS011;5698;47.332;11.180;2023-09-19T01:13:48;5.30;;;1.87;;
11283;SDS011;5698;47.332;11.180;2023-09-19T01:16:27;2.00;;;1.80;;
11283;SDS011;5698;47.332;11.180;2023-09-19T01:19:01;3.63;;;1.73;;
11283;SDS011;5698;47.332;11.180;2023-09-19T01:21:50;1.50;;;1.40;;
11283;SDS011;5698;47.332;11.180;2023-09-19T01:24:38;1.63;;;1.50;;
11283;SDS011;5698;47.332;11.180;2023-09-19T01:27:40;2.40;;;1.50;;
11283;SDS011;5698;47.332;11.180;2023-09-19T01:30:30;2.43;;;1.40;;
11283;SDS011;5698;47.332;11.180;2023-09-19T01:32:59;1.50;;;1.40;;
11283;SDS011;5698;47.332;11.180;2023-09-19T01:35:26;1.50;;;1.40;;
11283;SDS011;5698;47.332;11.180;2023-09-19T01:37:53;1.47;;;1.37;;
11283;SDS011;5698;47.332;11.180;2023-09-19T01:40:20;1.63;;;1.23;;
11283;SDS011;5698;47.332;11.180;2023-09-19T01:42:56;1.97;;;1.33;;
11283;SDS011;5698;47.332;11.180;2023-09-19T01:45:32;2.03;;;1.20;;
11283;SDS011;5698;47.332;11.180;2023-09-19T01:48:08;1.90;;;1.40;;
11283;SDS011;5698;47.332;11.180;2023-09-19T01:50:47;1.43;;;1.20;;
11283;SDS011;5698;47.332;11.180;2023-09-19T01:53:22;1.73;;;1.60;;
11283;SDS011;5698;47.332;11.180;2023-09-19T01:55:53;1.40;;;1.20;;
11283;SDS011;5698;47.332;11.180;2023-09-19T01:58:22;1.30;;;1.20;;
11283;SDS011;5698;47.332;11.180;2023-09-19T02:00:57;1.40;;;1.30;;
11283;SDS011;5698;47.332;11.180;2023-09-19T02:03:26;1.50;;;1.23;;
11283;SDS011;5698;47.332;11.180;2023-09-19T02:05:55;1.30;;;1.20;;
11283;SDS011;5698;47.332;11.180;2023-09-19T02:08:22;1.43;;;1.10;;
11283;SDS011;5698;47.332;11.180;2023-09-19T02:10:49;2.43;;;1.47;;
11283;SDS011;5698;47.332;11.180;2023-09-19T02:13:18;1.10;;;1.00;;
11283;SDS011;5698;47.332;11.180;2023-09-19T02:15:46;1.30;;;1.03;;
11283;SDS011;5698;47.332;11.180;2023-09-19T02:18:14;1.27;;;1.03;;
11283;SDS011;5698;47.332;11.180;2023-09-19T02:20:42;1.00;;;0.90;;
11283;SDS011;5698;47.332;11.180;2023-09-19T02:23:09;1.37;;;1.27;;
11283;SDS011;5698;47.332;11.180;2023-09-19T02:25:37;1.20;;;1.10;;
11283;SDS011;5698;47.332;11.180;2023-09-19T02:28:05;2.80;;;1.50;;
11283;SDS011;5698;47.332;11.180;2023-09-19T02:30:34;1.50;;;1.40;;
11283;SDS011;5698;47.332;11.180;2023-09-19T02:33:02;1.23;;;1.10;;
11283;SDS011;5698;47.332;11.180;2023-09-19T02:35:31;2.73;;;1.50;;
11283;SDS011;5698;47.332;11.180;2023-09-19T02:38:00;1.47;;;1.37;;
11283;SDS011;5698;47.332;11.180;2023-09-19T02:40:27;1.87;;;1.40;;
11283;SDS011;5698;47.332;11.180;2023-09-19T02:42:55;1.30;;;1.20;;
11283;SDS011;5698;47.332;11.180;2023-09-19T02:45:24;1.93;;;1.20;;
11283;SDS011;5698;47.332;11.180;2023-09-19T02:47:51;1.53;;;1.10;;
11283;SDS011;5698;47.332;11.180;2023-09-19T02:50:18;1.63;;;1.30;;
11283;SDS011;5698;47.332;11.180;2023-09-19T02:52:47;1.20;;;1.10;;
11283;SDS011;5698;47.332;11.180;2023-09-19T02:55:15;1.70;;;1.27;;
11283;SDS011;5698;47.332;11.180;2023-09-19T02:57:47;1.40;;;1.30;;
11283;SDS011;5698;47.332;11.180;2023-09-19T03:00:16;2.83;;;1.20;;
11283;SDS011;5698;47.332;11.180;2023-09-19T03:02:47;1.30;;;1.20;;
11283;SDS011;5698;47.332;11.180;2023-09-19T03:05:14;1.30;;;1.20;;
11283;SDS011;5698;47.332;11.180;2023-09-19T03:07:41;2.70;;;1.50;;
11283;SDS011;5698;47.332;11.180;2023-09-19T03:10:12;1.90;;;1.70;;
11283;SDS011;5698;47.332;11.180;2023-09-19T03:12:40;2.30;;;1.23;;
11283;SDS011;5698;47.332;11.180;2023-09-19T03:15:07;1.50;;;1.13;;
11283;SDS011;5698;47.332;11.180;2023-09-19T03:17:34;1.63;;;1.23;;
11283;SDS011;5698;47.332;11.180;2023-09-19T03:20:02;1.50;;;1.20;;
11283;SDS011;5698;47.332;11.180;2023-09-19T03:22:29;1.80;;;1.60;;
11283;SDS011;5698;47.332;11.180;2023-09-19T03:24:58;1.40;;;1.20;;
11283;SDS011;5698;47.332;11.180;2023-09-19T03:27:27;1.30;;;1.20;;
11283;SDS011;5698;47.332;11.180;2023-09-19T03:29:54;1.33;;;1.13;;
11283;SDS011;5698;47.332;11.180;2023-09-19T03:32:21;1.20;;;1.10;;
11283;SDS011;5698;47.332;11.180;2023-09-19T03:34:48;1.60;;;1.37;;
11283;SDS011;5698;47.332;11.180;2023-09-19T03:37:15;1.33;;;1.10;;
11283;SDS011;5698;47.332;11.180;2023-09-19T03:39:42;3.30;;;1.20;;
11283;SDS011;5698;47.332;11.180;2023-09-19T03:42:09;1.20;;;1.10;;
11283;SDS011;5698;47.332;11.180;2023-09-19T03:44:37;1.43;;;1.20;;
11283;SDS011;5698;47.332;11.180;2023-09-19T03:47:04;1.20;;;1.10;;
11283;SDS011;5698;47.332;11.180;2023-09-19T03:49:32;1.27;;;1.17;;
11283;SDS011;5698;47.332;11.180;2023-09-19T03:51:59;2.80;;;1.07;;
11283;SDS011;5698;47.332;11.180;2023-09-19T03:54:26;3.27;;;0.80;;
11283;SDS011;5698;47.332;11.180;2023-09-19T03:56:53;1.20;;;1.10;;
11283;SDS011;5698;47.332;11.180;2023-09-19T03:59:20;1.07;;;0.97;;
11283;SDS011;5698;47.332;11.180;2023-09-19T04:01:48;2.13;;;1.03;;
11283;SDS011;5698;47.332;11.180;2023-09-19T04:04:20;0.93;;;0.73;;
11283;SDS011;5698;47.332;11.180;2023-09-19T04:06:49;1.10;;;1.00;;
11283;SDS011;5698;47.332;11.180;2023-09-19T04:09:16;2.13;;;1.10;;
11283;SDS011;5698;47.332;11.180;2023-09-19T04:11:43;0.83;;;0.83;;
11283;SDS011;5698;47.332;11.180;2023-09-19T04:14:10;2.03;;;1.10;;
11283;SDS011;5698;47.332;11.180;2023-09-19T04:16:37;0.87;;;0.87;;
11283;SDS011;5698;47.332;11.180;2023-09-19T04:19:06;0.90;;;0.90;;
11283;SDS011;5698;47.332;11.180;2023-09-19T04:21:33;1.20;;;1.10;;
11283;SDS011;5698;47.332;11.180;2023-09-19T04:24:00;1.37;;;0.90;;
11283;SDS011;5698;47.332;11.180;2023-09-19T04:26:28;1.57;;;1.10;;
11283;SDS011;5698;47.332;11.180;2023-09-19T04:28:54;0.97;;;0.90;;
11283;SDS011;5698;47.332;11.180;2023-09-19T04:31:22;1.10;;;1.00;;
11283;SDS011;5698;47.332;11.180;2023-09-19T04:33:49;1.03;;;0.90;;
11283;SDS011;5698;47.332;11.180;2023-09-19T04:36:18;1.37;;;1.27;;
11283;SDS011;5698;47.332;11.180;2023-09-19T04:38:46;1.13;;;1.00;;
11283;SDS011;5698;47.332;11.180;2023-09-19T04:41:13;1.60;;;1.10;;
11283;SDS011;5698;47.332;11.180;2023-09-19T04:43:41;0.83;;;0.83;;
11283;SDS011;5698;47.332;11.180;2023-09-19T04:46:08;2.47;;;0.90;;
11283;SDS011;5698;47.332;11.180;2023-09-19T04:48:35;1.40;;;1.00;;
11283;SDS011;5698;47.332;11.180;2023-09-19T04:51:02;0.83;;;0.83;;
11283;SDS011;5698;47.332;11.180;2023-09-19T04:53:30;2.60;;;1.10;;
11283;SDS011;5698;47.332;11.180;2023-09-19T04:55:57;1.57;;;1.47;;
11283;SDS011;5698;47.332;11.180;2023-09-19T04:58:24;1.77;;;1.67;;
11283;SDS011;5698;47.332;11.180;2023-09-19T05:00:51;1.50;;;1.40;;
11283;SDS011;5698;47.332;11.180;2023-09-19T05:03:18;1.60;;;1.40;;
11283;SDS011;5698;47.332;11.180;2023-09-19T05:05:47;1.83;;;1.13;;
11283;SDS011;5698;47.332;11.180;2023-09-19T05:08:14;1.77;;;1.10;;
11283;SDS011;5698;47.332;11.180;2023-09-19T05:10:42;1.10;;;1.00;;
11283;SDS011;5698;47.332;11.180;2023-09-19T05:13:10;1.27;;;0.93;;
11283;SDS011;5698;47.332;11.180;2023-09-19T05:15:37;1.27;;;0.93;;
11283;SDS011;5698;47.332;11.180;2023-09-19T05:18:04;1.90;;;1.00;;
11283;SDS011;5698;47.332;11.180;2023-09-19T05:20:31;2.67;;;1.10;;
11283;SDS011;5698;47.332;11.180;2023-09-19T05:23:01;1.27;;;1.17;;
11283;SDS011;5698;47.332;11.180;2023-09-19T05:25:32;2.80;;;1.20;;
11283;SDS011;5698;47.332;11.180;2023-09-19T05:28:03;1.00;;;1.00;;
11283;SDS011;5698;47.332;11.180;2023-09-19T05:30:31;3.83;;;1.10;;
11283;SDS011;5698;47.332;11.180;2023-09-19T05:32:58;1.47;;;1.27;;
11283;SDS011;5698;47.332;11.180;2023-09-19T05:35:25;1.00;;;1.00;;
11283;SDS011;5698;47.332;11.180;2023-09-19T05:37:52;1.37;;;1.10;;
11283;SDS011;5698;47.332;11.180;2023-09-19T05:40:21;1.40;;;1.30;;
11283;SDS011;5698;47.332;11.180;2023-09-19T05:42:48;1.73;;;1.10;;
11283;SDS011;5698;47.332;11.180;2023-09-19T05:45:17;2.63;;;1.20;;
11283;SDS011;5698;47.332;11.180;2023-09-19T05:47:47;1.53;;;1.40;;
11283;SDS011;5698;47.332;11.180;2023-09-19T05:50:15;1.43;;;1.30;;
11283;SDS011;5698;47.332;11.180;2023-09-19T05:52:43;3.67;;;1.53;;
11283;SDS011;5698;47.332;11.180;2023-09-19T05:55:17;1.67;;;1.40;;
11283;SDS011;5698;47.332;11.180;2023-09-19T05:57:48;1.60;;;1.50;;
11283;SDS011;5698;47.332;11.180;2023-09-19T06:00:18;1.80;;;1.43;;
11283;SDS011;5698;47.332;11.180;2023-09-19T06:02:49;1.83;;;1.73;;
11283;SDS011;5698;47.332;11.180;2023-09-19T06:05:17;1.57;;;1.47;;
11283;SDS011;5698;47.332;11.180;2023-09-19T06:07:44;1.70;;;1.60;;
11283;SDS011;5698;47.332;11.180;2023-09-19T06:10:12;2.23;;;1.80;;
11283;SDS011;5698;47.332;11.180;2023-09-19T06:12:40;2.13;;;1.70;;
11283;SDS011;5698;47.332;11.180;2023-09-19T06:15:09;1.77;;;1.67;;
11283;SDS011;5698;47.332;11.180;2023-09-19T06:17:41;1.90;;;1.50;;
11283;SDS011;5698;47.332;11.180;2023-09-19T06:20:08;2.23;;;1.57;;
11283;SDS011;5698;47.332;11.180;2023-09-19T06:22:39;1.40;;;1.30;;
11283;SDS011;5698;47.332;11.180;2023-09-19T06:25:07;1.60;;;1.30;;
11283;SDS011;5698;47.332;11.180;2023-09-19T06:27:36;3.43;;;1.50;;
11283;SDS011;5698;47.332;11.180;2023-09-19T06:30:04;1.57;;;1.30;;
11283;SDS011;5698;47.332;11.180;2023-09-19T06:32:33;1.20;;;1.10;;
11283;SDS011;5698;47.332;11.180;2023-09-19T06:35:01;1.80;;;1.20;;
11283;SDS011;5698;47.332;11.180;2023-09-19T06:37:33;1.73;;;1.33;;
11283;SDS011;5698;47.332;11.180;2023-09-19T06:40:00;1.87;;;1.37;;
11283;SDS011;5698;47.332;11.180;2023-09-19T06:42:30;1.83;;;1.40;;
11283;SDS011;5698;47.332;11.180;2023-09-19T06:44:57;1.60;;;1.30;;
11283;SDS011;5698;47.332;11.180;2023-09-19T06:47:24;2.20;;;1.50;;
11283;SDS011;5698;47.332;11.180;2023-09-19T06:49:52;2.90;;;1.30;;
11283;SDS011;5698;47.332;11.180;2023-09-19T06:52:20;1.30;;;1.20;;
11283;SDS011;5698;47.332;11.180;2023-09-19T06:54:47;1.23;;;1.13;;
11283;SDS011;5698;47.332;11.180;2023-09-19T06:57:15;1.30;;;1.20;;
11283;SDS011;5698;47.332;11.180;2023-09-19T06:59:42;3.13;;;1.23;;
11283;SDS011;5698;47.332;11.180;2023-09-19T07:02:10;1.57;;;1.33;;
11283;SDS011;5698;47.332;11.180;2023-09-19T07:04:37;2.53;;;1.40;;
11283;SDS011;5698;47.332;11.180;2023-09-19T07:07:03;2.27;;;1.57;;
11283;SDS011;5698;47.332;11.180;2023-09-19T07:09:32;2.00;;;1.40;;
11283;SDS011;5698;47.332;11.180;2023-09-19T07:11:59;1.70;;;1.20;;
11283;SDS011;5698;47.332;11.180;2023-09-19T07:14:25;1.47;;;1.20;;
11283;SDS011;5698;47.332;11.180;2023-09-19T07:16:53;1.20;;;1.10;;
11283;SDS011;5698;47.332;11.180;2023-09-19T07:19:20;1.10;;;1.00;;
11283;SDS011;5698;47.332;11.180;2023-09-19T07:21:47;1.00;;;1.00;;
11283;SDS011;5698;47.332;11.180;2023-09-19T07:24:15;1.10;;;1.00;;
11283;SDS011;5698;47.332;11.180;2023-09-19T07:26:44;0.97;;;0.87;;
11283;SDS011;5698;47.332;11.180;2023-09-19T07:29:11;0.83;;;0.77;;
11283;SDS011;5698;47.332;11.180;2023-09-19T07:31:38;1.37;;;0.90;;
11283;SDS011;5698;47.332;11.180;2023-09-19T07:34:05;1.83;;;1.00;;
11283;SDS011;5698;47.332;11.180;2023-09-19T07:36:33;1.37;;;0.93;;
11283;SDS011;5698;47.332;11.180;2023-09-19T07:39:02;1.27;;;1.10;;
11283;SDS011;5698;47.332;11.180;2023-09-19T07:41:32;1.10;;;0.90;;
11283;SDS011;5698;47.332;11.180;2023-09-19T07:44:00;1.30;;;0.80;;
11283;SDS011;5698;47.332;11.180;2023-09-19T07:46:27;1.63;;;1.30;;
11283;SDS011;5698;47.332;11.180;2023-09-19T07:48:56;1.47;;;0.90;;
11283;SDS011;5698;47.332;11.180;2023-09-19T07:51:23;0.90;;;0.80;;
11283;SDS011;5698;47.332;11.180;2023-09-19T07:53:50;1.00;;;0.80;;
11283;SDS011;5698;47.332;11.180;2023-09-19T07:56:17;0.80;;;0.70;;
11283;SDS011;5698;47.332;11.180;2023-09-19T07:58:45;2.17;;;0.90;;
11283;SDS011;5698;47.332;11.180;2023-09-19T08:01:14;1.03;;;0.90;;
11283;SDS011;5698;47.332;11.180;2023-09-19T08:03:41;1.03;;;0.80;;
11283;SDS011;5698;47.332;11.180;2023-09-19T08:06:09;0.90;;;0.90;;
11283;SDS011;5698;47.332;11.180;2023-09-19T08:08:36;1.40;;;0.87;;
11283;SDS011;5698;47.332;11.180;2023-09-19T08:11:04;2.20;;;1.00;;
11283;SDS011;5698;47.332;11.180;2023-09-19T08:13:36;0.80;;;0.80;;
11283;SDS011;5698;47.332;11.180;2023-09-19T08:16:06;1.53;;;0.93;;
11283;SDS011;5698;47.332;11.180;2023-09-19T08:18:34;1.43;;;1.10;;
11283;SDS011;5698;47.332;11.180;2023-09-19T08:21:02;1.00;;;0.73;;
11283;SDS011;5698;47.332;11.180;2023-09-19T08:23:28;2.27;;;0.80;;
11283;SDS011;5698;47.332;11.180;2023-09-19T08:25:57;1.97;;;1.10;;
11283;SDS011;5698;47.332;11.180;2023-09-19T08:28:27;1.13;;;1.00;;
11283;SDS011;5698;47.332;11.180;2023-09-19T08:30:54;1.30;;;1.00;;
11283;SDS011;5698;47.332;11.180;2023-09-19T08:33:23;1.57;;;1.10;;
11283;SDS011;5698;47.332;11.180;2023-09-19T08:35:51;1.10;;;1.00;;
11283;SDS011;5698;47.332;11.180;2023-09-19T08:38:18;1.40;;;1.00;;
11283;SDS011;5698;47.332;11.180;2023-09-19T08:40:45;1.57;;;1.27;;
11283;SDS011;5698;47.332;11.180;2023-09-19T08:43:12;1.30;;;1.20;;
11283;SDS011;5698;47.332;11.180;2023-09-19T08:45:39;1.20;;;1.10;;
11283;SDS011;5698;47.332;11.180;2023-09-19T08:48:17;2.83;;;1.10;;
11283;SDS011;5698;47.332;11.180;2023-09-19T08:50:52;1.23;;;1.10;;
11283;SDS011;5698;47.332;11.180;2023-09-19T08:53:26;1.10;;;1.00;;
11283;SDS011;5698;47.332;11.180;2023-09-19T08:55:57;1.50;;;1.00;;
11283;SDS011;5698;47.332;11.180;2023-09-19T08:58:33;1.90;;;1.40;;
11283;SDS011;5698;47.332;11.180;2023-09-19T09:01:06;2.50;;;0.87;;
11283;SDS011;5698;47.332;11.180;2023-09-19T09:03:33;1.00;;;0.87;;
11283;SDS011;5698;47.332;11.180;2023-09-19T09:06:03;2.27;;;1.00;;
11283;SDS011;5698;47.332;11.180;2023-09-19T09:08:30;1.73;;;1.00;;
11283;SDS011;5698;47.332;11.180;2023-09-19T09:10:58;2.27;;;0.97;;
11283;SDS011;5698;47.332;11.180;2023-09-19T09:13:26;1.33;;;1.00;;
11283;SDS011;5698;47.332;11.180;2023-09-19T09:15:53;2.50;;;1.20;;
11283;SDS011;5698;47.332;11.180;2023-09-19T09:18:20;1.40;;;0.90;;
11283;SDS011;5698;47.332;11.180;2023-09-19T09:20:47;1.80;;;0.80;;
11283;SDS011;5698;47.332;11.180;2023-09-19T09:23:16;1.23;;;1.00;;
11283;SDS011;5698;47.332;11.180;2023-09-19T09:25:49;1.70;;;1.10;;
11283;SDS011;5698;47.332;11.180;2023-09-19T09:28:21;1.10;;;1.00;;
11283;SDS011;5698;47.332;11.180;2023-09-19T09:30:50;1.97;;;0.90;;
11283;SDS011;5698;47.332;11.180;2023-09-19T09:33:17;1.33;;;1.00;;
11283;SDS011;5698;47.332;11.180;2023-09-19T09:35:47;1.00;;;0.90;;
11283;SDS011;5698;47.332;11.180;2023-09-19T09:38:18;1.00;;;0.90;;
11283;SDS011;5698;47.332;11.180;2023-09-19T09:40:46;1.20;;;1.00;;
11283;SDS011;5698;47.332;11.180;2023-09-19T09:43:25;2.67;;;1.00;;
11283;SDS011;5698;47.332;11.180;2023-09-19T09:46:06;2.40;;;1.07;;
11283;SDS011;5698;47.332;11.180;2023-09-19T09:49:10;1.90;;;0.97;;
11283;SDS011;5698;47.332;11.180;2023-09-19T09:51:58;1.87;;;1.30;;
11283;SDS011;5698;47.332;11.180;2023-09-19T09:54:31;4.67;;;1.10;;
11283;SDS011;5698;47.332;11.180;2023-09-19T09:57:02;1.63;;;1.10;;
11283;SDS011;5698;47.332;11.180;2023-09-19T09:59:48;2.90;;;1.20;;
11283;SDS011;5698;47.332;11.180;2023-09-19T10:02:19;1.57;;;0.90;;
11283;SDS011;5698;47.332;11.180;2023-09-19T10:04:50;2.23;;;1.20;;
11283;SDS011;5698;47.332;11.180;2023-09-19T10:07:27;1.47;;;1.10;;
11283;SDS011;5698;47.332;11.180;2023-09-19T10:09:59;1.67;;;1.10;;
11283;SDS011;5698;47.332;11.180;2023-09-19T10:12:38;1.57;;;1.10;;
11283;SDS011;5698;47.332;11.180;2023-09-19T10:15:14;0.97;;;0.90;;
11283;SDS011;5698;47.332;11.180;2023-09-19T10:17:45;1.10;;;1.00;;
11283;SDS011;5698;47.332;11.180;2023-09-19T10:20:13;1.00;;;0.73;;
11283;SDS011;5698;47.332;11.180;2023-09-19T10:23:04;1.07;;;0.90;;
11283;SDS011;5698;47.332;11.180;2023-09-19T10:25:39;2.10;;;1.10;;
11283;SDS011;5698;47.332;11.180;2023-09-19T10:28:08;5.60;;;2.30;;
11283;SDS011;5698;47.332;11.180;2023-09-19T10:30:37;1.23;;;1.10;;
11283;SDS011;5698;47.332;11.180;2023-09-19T10:33:09;1.60;;;0.97;;
11283;SDS011;5698;47.332;11.180;2023-09-19T10:35:38;1.10;;;0.87;;
11283;SDS011;5698;47.332;11.180;2023-09-19T10:38:07;1.77;;;0.80;;
11283;SDS011;5698;47.332;11.180;2023-09-19T10:40:36;0.80;;;0.80;;
11283;SDS011;5698;47.332;11.180;2023-09-19T10:43:11;1.00;;;0.87;;
11283;SDS011;5698;47.332;11.180;2023-09-19T10:45:38;2.00;;;0.80;;
11283;SDS011;5698;47.332;11.180;2023-09-19T10:48:06;0.70;;;0.70;;
11283;SDS011;5698;47.332;11.180;2023-09-19T10:50:35;1.20;;;0.73;;
11283;SDS011;5698;47.332;11.180;2023-09-19T10:53:10;0.73;;;0.73;;
11283;SDS011;5698;47.332;11.180;2023-09-19T10:55:39;1.00;;;0.90;;
11283;SDS011;5698;47.332;11.180;2023-09-19T10:58:06;0.83;;;0.70;;
11283;SDS011;5698;47.332;11.180;2023-09-19T11:00:53;1.13;;;0.70;;
11283;SDS011;5698;47.332;11.180;2023-09-19T11:03:22;0.70;;;0.67;;
11283;SDS011;5698;47.332;11.180;2023-09-19T11:06:02;0.67;;;0.57;;
11283;SDS011;5698;47.332;11.180;2023-09-19T11:11:46;0.70;;;0.70;;
11283;SDS011;5698;47.332;11.180;2023-09-19T11:14:28;1.23;;;0.73;;
11283;SDS011;5698;47.332;11.180;2023-09-19T11:20:19;1.53;;;0.80;;
11283;SDS011;5698;47.332;11.180;2023-09-19T11:23:17;0.93;;;0.73;;
11283;SDS011;5698;47.332;11.180;2023-09-19T11:25:43;1.40;;;1.30;;
11283;SDS011;5698;47.332;11.180;2023-09-19T11:40:36;0.70;;;0.70;;
11283;SDS011;5698;47.332;11.180;2023-09-19T11:46:02;0.50;;;0.50;;
11283;SDS011;5698;47.332;11.180;2023-09-19T11:48:30;0.40;;;0.40;;
11283;SDS011;5698;47.332;11.180;2023-09-19T11:51:00;0.73;;;0.50;;
11283;SDS011;5698;47.332;11.180;2023-09-19T11:53:32;0.87;;;0.60;;
11283;SDS011;5698;47.332;11.180;2023-09-19T11:56:01;0.63;;;0.63;;
11283;SDS011;5698;47.332;11.180;2023-09-19T11:58:32;0.83;;;0.50;;
11283;SDS011;5698;47.332;11.180;2023-09-19T12:00:59;1.17;;;0.60;;
11283;SDS011;5698;47.332;11.180;2023-09-19T12:03:34;0.63;;;0.50;;
11283;SDS011;5698;47.332;11.180;2023-09-19T12:06:10;1.63;;;0.70;;
11283;SDS011;5698;47.332;11.180;2023-09-19T12:08:39;0.70;;;0.60;;
11283;SDS011;5698;47.332;11.180;2023-09-19T12:11:11;0.50;;;0.50;;
11283;SDS011;5698;47.332;11.180;2023-09-19T12:13:43;0.60;;;0.50;;
11283;SDS011;5698;47.332;11.180;2023-09-19T12:16:12;0.83;;;0.60;;
11283;SDS011;5698;47.332;11.180;2023-09-19T12:18:42;0.80;;;0.60;;
11283;SDS011;5698;47.332;11.180;2023-09-19T12:21:24;1.07;;;0.70;;
11283;SDS011;5698;47.332;11.180;2023-09-19T12:26:39;0.60;;;0.60;;
11283;SDS011;5698;47.332;11.180;2023-09-19T12:29:15;0.43;;;0.43;;
11283;SDS011;5698;47.332;11.180;2023-09-19T12:31:47;0.70;;;0.50;;
11283;SDS011;5698;47.332;11.180;2023-09-19T12:34:18;0.43;;;0.43;;
11283;SDS011;5698;47.332;11.180;2023-09-19T12:36:47;2.37;;;0.50;;
11283;SDS011;5698;47.332;11.180;2023-09-19T12:39:22;1.50;;;0.60;;
11283;SDS011;5698;47.332;11.180;2023-09-19T12:41:51;0.77;;;0.40;;
11283;SDS011;5698;47.332;11.180;2023-09-19T12:44:19;0.57;;;0.57;;
11283;SDS011;5698;47.332;11.180;2023-09-19T12:46:46;0.60;;;0.40;;
11283;SDS011;5698;47.332;11.180;2023-09-19T12:49:18;0.50;;;0.50;;
11283;SDS011;5698;47.332;11.180;2023-09-19T12:51:45;0.50;;;0.50;;
11283;SDS011;5698;47.332;11.180;2023-09-19T12:54:13;0.57;;;0.57;;
11283;SDS011;5698;47.332;11.180;2023-09-19T12:56:41;0.40;;;0.40;;
11283;SDS011;5698;47.332;11.180;2023-09-19T13:01:43;0.60;;;0.40;;
11283;SDS011;5698;47.332;11.180;2023-09-19T13:04:14;0.83;;;0.47;;
11283;SDS011;5698;47.332;11.180;2023-09-19T13:06:45;0.50;;;0.50;;
11283;SDS011;5698;47.332;11.180;2023-09-19T13:09:16;0.43;;;0.40;;
11283;SDS011;5698;47.332;11.180;2023-09-19T13:11:45;0.40;;;0.40;;
11283;SDS011;5698;47.332;11.180;2023-09-19T13:14:14;0.47;;;0.47;;
11283;SDS011;5698;47.332;11.180;2023-09-19T13:16:58;0.97;;;0.40;;
11283;SDS011;5698;47.332;11.180;2023-09-19T13:19:41;0.40;;;0.40;;
11283;SDS011;5698;47.332;11.180;2023-09-19T13:25:06;0.50;;;0.40;;
11283;SDS011;5698;47.332;11.180;2023-09-19T13:27:33;0.60;;;0.60;;
11283;SDS011;5698;47.332;11.180;2023-09-19T13:30:00;0.40;;;0.40;;
11283;SDS011;5698;47.332;11.180;2023-09-19T13:32:27;0.73;;;0.73;;
11283;SDS011;5698;47.332;11.180;2023-09-19T13:34:54;0.40;;;0.40;;
11283;SDS011;5698;47.332;11.180;2023-09-19T13:37:21;0.50;;;0.40;;
11283;SDS011;5698;47.332;11.180;2023-09-19T13:39:49;0.40;;;0.40;;
11283;SDS011;5698;47.332;11.180;2023-09-19T13:42:17;0.43;;;0.40;;
11283;SDS011;5698;47.332;11.180;2023-09-19T13:44:46;0.50;;;0.50;;
11283;SDS011;5698;47.332;11.180;2023-09-19T13:47:13;0.40;;;0.40;;
11283;SDS011;5698;47.332;11.180;2023-09-19T13:49:41;0.60;;;0.50;;
11283;SDS011;5698;47.332;11.180;2023-09-19T13:52:09;1.40;;;0.50;;
11283;SDS011;5698;47.332;11.180;2023-09-19T13:54:38;0.53;;;0.50;;
11283;SDS011;5698;47.332;11.180;2023-09-19T13:57:06;0.70;;;0.50;;
11283;SDS011;5698;47.332;11.180;2023-09-19T13:59:33;0.80;;;0.50;;
11283;SDS011;5698;47.332;11.180;2023-09-19T14:02:00;0.50;;;0.50;;
11283;SDS011;5698;47.332;11.180;2023-09-19T14:04:30;0.40;;;0.40;;
11283;SDS011;5698;47.332;11.180;2023-09-19T14:06:59;0.50;;;0.50;;
11283;SDS011;5698;47.332;11.180;2023-09-19T14:09:26;0.53;;;0.47;;
11283;SDS011;5698;47.332;11.180;2023-09-19T14:11:53;0.97;;;0.50;;
11283;SDS011;5698;47.332;11.180;2023-09-19T14:14:22;1.13;;;0.50;;
11283;SDS011;5698;47.332;11.180;2023-09-19T14:16:48;0.57;;;0.43;;
11283;SDS011;5698;47.332;11.180;2023-09-19T14:19:16;0.70;;;0.60;;
11283;SDS011;5698;47.332;11.180;2023-09-19T14:21:43;0.40;;;0.40;;
11283;SDS011;5698;47.332;11.180;2023-09-19T14:24:09;0.73;;;0.50;;
11283;SDS011;5698;47.332;11.180;2023-09-19T14:26:37;0.40;;;0.40;;
11283;SDS011;5698;47.332;11.180;2023-09-19T14:29:04;0.90;;;0.50;;
11283;SDS011;5698;47.332;11.180;2023-09-19T14:31:34;0.57;;;0.40;;
11283;SDS011;5698;47.332;11.180;2023-09-19T14:34:05;0.40;;;0.40;;
11283;SDS011;5698;47.332;11.180;2023-09-19T14:36:32;1.53;;;0.57;;
11283;SDS011;5698;47.332;11.180;2023-09-19T14:38:59;0.40;;;0.40;;
11283;SDS011;5698;47.332;11.180;2023-09-19T14:41:26;0.50;;;0.50;;
11283;SDS011;5698;47.332;11.180;2023-09-19T14:43:53;0.30;;;0.30;;
11283;SDS011;5698;47.332;11.180;2023-09-19T14:46:20;0.47;;;0.43;;
11283;SDS011;5698;47.332;11.180;2023-09-19T14:48:50;0.50;;;0.47;;
11283;SDS011;5698;47.332;11.180;2023-09-19T14:51:17;0.50;;;0.50;;
11283;SDS011;5698;47.332;11.180;2023-09-19T14:53:45;0.40;;;0.40;;
11283;SDS011;5698;47.332;11.180;2023-09-19T14:56:12;0.40;;;0.40;;
11283;SDS011;5698;47.332;11.180;2023-09-19T14:58:43;0.60;;;0.60;;
11283;SDS011;5698;47.332;11.180;2023-09-19T15:01:10;0.47;;;0.40;;
11283;SDS011;5698;47.332;11.180;2023-09-19T15:03:39;0.63;;;0.53;;
11283;SDS011;5698;47.332;11.180;2023-09-19T15:06:09;1.50;;;1.40;;
11283;SDS011;5698;47.332;11.180;2023-09-19T15:08:39;0.83;;;0.40;;
11283;SDS011;5698;47.332;11.180;2023-09-19T15:11:11;0.50;;;0.50;;
11283;SDS011;5698;47.332;11.180;2023-09-19T15:13:38;1.53;;;0.40;;
11283;SDS011;5698;47.332;11.180;2023-09-19T15:16:06;1.17;;;1.07;;
11283;SDS011;5698;47.332;11.180;2023-09-19T15:18:35;0.83;;;0.50;;
11283;SDS011;5698;47.332;11.180;2023-09-19T15:21:04;0.70;;;0.70;;
11283;SDS011;5698;47.332;11.180;2023-09-19T15:23:33;0.40;;;0.40;;
11283;SDS011;5698;47.332;11.180;2023-09-19T15:26:01;0.90;;;0.73;;
11283;SDS011;5698;47.332;11.180;2023-09-19T15:28:28;0.50;;;0.50;;
11283;SDS011;5698;47.332;11.180;2023-09-19T15:30:57;0.50;;;0.50;;
11283;SDS011;5698;47.332;11.180;2023-09-19T15:33:25;0.70;;;0.70;;